sensor_id;sensor_type;location;lat;lon;timestamp;P1;durP1;ratioP1;P2;durP2;ratioP2
70369;SDS011;57790;51.356;-2.906;2024-03-02T00:02:17;3.77;;;0.50;;
70369;SDS011;57790;51.356;-2.906;2024-03-02T00:05:18;3.20;;;0.40;;
70369;SDS011;57790;51.356;-2.906;2024-03-02T00:08:23;3.50;;;0.50;;
70369;SDS011;57790;51.356;-2.906;2024-03-02T00:11:25;2.97;;;0.60;;
70369;SDS011;57790;51.356;-2.906;2024-03-02T00:14:30;2.95;;;0.52;;
70369;SDS011;57790;51.356;-2.906;2024-03-02T00:17:31;3.23;;;0.40;;
70369;SDS011;57790;51.356;-2.906;2024-03-02T00:20:31;3.43;;;0.50;;
70369;SDS011;57790;51.356;-2.906;2024-03-02T00:23:32;1.90;;;0.30;;
70369;SDS011;57790;51.356;-2.906;2024-03-02T00:26:33;3.92;;;0.43;;
70369;SDS011;57790;51.356;-2.906;2024-03-02T00:29:34;2.10;;;0.40;;
70369;SDS011;57790;51.356;-2.906;2024-03-02T00:32:35;3.63;;;0.60;;
70369;SDS011;57790;51.356;-2.906;2024-03-02T00:35:35;2.93;;;0.70;;
70369;SDS011;57790;51.356;-2.906;2024-03-02T00:38:46;3.72;;;0.50;;
70369;SDS011;57790;51.356;-2.906;2024-03-02T00:41:47;4.68;;;0.70;;
70369;SDS011;57790;51.356;-2.906;2024-03-02T00:44:48;7.57;;;0.50;;
70369;SDS011;57790;51.356;-2.906;2024-03-02T00:47:48;5.27;;;0.60;;
70369;SDS011;57790;51.356;-2.906;2024-03-02T00:50:52;3.70;;;0.60;;
70369;SDS011;57790;51.356;-2.906;2024-03-02T00:53:53;6.00;;;0.60;;
70369;SDS011;57790;51.356;-2.906;2024-03-02T00:56:57;2.92;;;0.60;;
70369;SDS011;57790;51.356;-2.906;2024-03-02T00:59:57;2.20;;;0.50;;
70369;SDS011;57790;51.356;-2.906;2024-03-02T01:02:57;4.63;;;0.57;;
70369;SDS011;57790;51.356;-2.906;2024-03-02T01:05:58;2.77;;;0.50;;
70369;SDS011;57790;51.356;-2.906;2024-03-02T01:08:58;3.63;;;0.47;;
70369;SDS011;57790;51.356;-2.906;2024-03-02T01:11:59;4.70;;;0.60;;
70369;SDS011;57790;51.356;-2.906;2024-03-02T01:14:59;2.57;;;0.60;;
70369;SDS011;57790;51.356;-2.906;2024-03-02T01:17:59;2.57;;;0.60;;
70369;SDS011;57790;51.356;-2.906;2024-03-02T01:21:00;4.30;;;0.70;;
70369;SDS011;57790;51.356;-2.906;2024-03-02T01:24:01;2.80;;;0.45;;
70369;SDS011;57790;51.356;-2.906;2024-03-02T01:27:02;2.87;;;0.50;;
70369;SDS011;57790;51.356;-2.906;2024-03-02T01:30:02;1.80;;;0.50;;
70369;SDS011;57790;51.356;-2.906;2024-03-02T01:33:03;2.00;;;0.35;;
70369;SDS011;57790;51.356;-2.906;2024-03-02T01:36:05;3.17;;;0.50;;
70369;SDS011;57790;51.356;-2.906;2024-03-02T01:39:05;3.65;;;0.70;;
70369;SDS011;57790;51.356;-2.906;2024-03-02T01:42:09;3.63;;;0.73;;
70369;SDS011;57790;51.356;-2.906;2024-03-02T01:45:10;3.43;;;0.77;;
70369;SDS011;57790;51.356;-2.906;2024-03-02T01:48:11;3.53;;;0.57;;
70369;SDS011;57790;51.356;-2.906;2024-03-02T01:51:11;3.15;;;0.60;;
70369;SDS011;57790;51.356;-2.906;2024-03-02T01:54:12;4.67;;;0.60;;
70369;SDS011;57790;51.356;-2.906;2024-03-02T01:57:12;3.83;;;0.50;;
70369;SDS011;57790;51.356;-2.906;2024-03-02T02:00:12;3.93;;;0.60;;
70369;SDS011;57790;51.356;-2.906;2024-03-02T02:03:13;4.07;;;0.93;;
70369;SDS011;57790;51.356;-2.906;2024-03-02T02:06:14;2.37;;;0.60;;
70369;SDS011;57790;51.356;-2.906;2024-03-02T02:09:14;2.50;;;0.50;;
70369;SDS011;57790;51.356;-2.906;2024-03-02T02:12:14;3.17;;;0.50;;
70369;SDS011;57790;51.356;-2.906;2024-03-02T02:15:33;3.92;;;0.70;;
70369;SDS011;57790;51.356;-2.906;2024-03-02T02:18:36;4.13;;;0.73;;
70369;SDS011;57790;51.356;-2.906;2024-03-02T02:21:36;3.33;;;0.53;;
70369;SDS011;57790;51.356;-2.906;2024-03-02T02:24:40;3.97;;;0.60;;
70369;SDS011;57790;51.356;-2.906;2024-03-02T02:27:41;4.07;;;0.60;;
70369;SDS011;57790;51.356;-2.906;2024-03-02T02:30:42;4.27;;;0.70;;
70369;SDS011;57790;51.356;-2.906;2024-03-02T02:33:42;4.38;;;0.60;;
70369;SDS011;57790;51.356;-2.906;2024-03-02T02:36:43;3.20;;;0.70;;
70369;SDS011;57790;51.356;-2.906;2024-03-02T02:39:44;4.80;;;0.73;;
70369;SDS011;57790;51.356;-2.906;2024-03-02T02:42:46;3.00;;;0.70;;
70369;SDS011;57790;51.356;-2.906;2024-03-02T02:45:47;4.65;;;0.80;;
70369;SDS011;57790;51.356;-2.906;2024-03-02T02:48:47;3.10;;;0.73;;
70369;SDS011;57790;51.356;-2.906;2024-03-02T02:51:48;3.37;;;0.80;;
70369;SDS011;57790;51.356;-2.906;2024-03-02T02:54:48;6.10;;;1.00;;
70369;SDS011;57790;51.356;-2.906;2024-03-02T02:57:49;4.10;;;0.90;;
70369;SDS011;57790;51.356;-2.906;2024-03-02T03:00:49;5.73;;;1.37;;
70369;SDS011;57790;51.356;-2.906;2024-03-02T03:03:50;4.35;;;0.88;;
70369;SDS011;57790;51.356;-2.906;2024-03-02T03:06:51;3.43;;;1.27;;
70369;SDS011;57790;51.356;-2.906;2024-03-02T03:09:51;5.20;;;1.20;;
70369;SDS011;57790;51.356;-2.906;2024-03-02T03:12:52;4.35;;;1.10;;
70369;SDS011;57790;51.356;-2.906;2024-03-02T03:15:52;4.67;;;1.00;;
70369;SDS011;57790;51.356;-2.906;2024-03-02T03:18:52;4.27;;;1.07;;
70369;SDS011;57790;51.356;-2.906;2024-03-02T03:21:53;3.77;;;1.10;;
70369;SDS011;57790;51.356;-2.906;2024-03-02T03:24:53;6.25;;;1.08;;
70369;SDS011;57790;51.356;-2.906;2024-03-02T03:27:54;4.03;;;1.03;;
70369;SDS011;57790;51.356;-2.906;2024-03-02T03:30:54;4.27;;;1.10;;
70369;SDS011;57790;51.356;-2.906;2024-03-02T03:33:55;4.50;;;1.33;;
70369;SDS011;57790;51.356;-2.906;2024-03-02T03:36:55;4.03;;;0.97;;
70369;SDS011;57790;51.356;-2.906;2024-03-02T03:39:55;4.00;;;1.00;;
70369;SDS011;57790;51.356;-2.906;2024-03-02T03:42:56;5.47;;;1.00;;
70369;SDS011;57790;51.356;-2.906;2024-03-02T03:45:56;5.63;;;0.98;;
70369;SDS011;57790;51.356;-2.906;2024-03-02T03:48:57;4.83;;;1.00;;
70369;SDS011;57790;51.356;-2.906;2024-03-02T03:51:57;3.10;;;0.80;;
70369;SDS011;57790;51.356;-2.906;2024-03-02T03:54:58;4.13;;;0.80;;
70369;SDS011;57790;51.356;-2.906;2024-03-02T03:57:58;3.57;;;0.80;;
70369;SDS011;57790;51.356;-2.906;2024-03-02T04:00:58;2.30;;;0.60;;
70369;SDS011;57790;51.356;-2.906;2024-03-02T04:03:59;3.00;;;0.77;;
70369;SDS011;57790;51.356;-2.906;2024-03-02T04:07:02;2.35;;;0.60;;
70369;SDS011;57790;51.356;-2.906;2024-03-02T04:10:02;2.87;;;0.50;;
70369;SDS011;57790;51.356;-2.906;2024-03-02T04:13:03;3.75;;;0.60;;
70369;SDS011;57790;51.356;-2.906;2024-03-02T04:16:04;1.70;;;0.50;;
70369;SDS011;57790;51.356;-2.906;2024-03-02T04:19:05;3.60;;;0.60;;
70369;SDS011;57790;51.356;-2.906;2024-03-02T04:22:05;1.87;;;0.60;;
70369;SDS011;57790;51.356;-2.906;2024-03-02T04:25:05;2.30;;;0.67;;
70369;SDS011;57790;51.356;-2.906;2024-03-02T04:28:07;2.92;;;0.70;;
70369;SDS011;57790;51.356;-2.906;2024-03-02T04:31:07;2.23;;;0.57;;
70369;SDS011;57790;51.356;-2.906;2024-03-02T04:34:07;2.83;;;0.70;;
70369;SDS011;57790;51.356;-2.906;2024-03-02T04:37:09;3.50;;;0.67;;
70369;SDS011;57790;51.356;-2.906;2024-03-02T04:40:12;5.88;;;0.88;;
70369;SDS011;57790;51.356;-2.906;2024-03-02T04:43:12;2.30;;;0.60;;
70369;SDS011;57790;51.356;-2.906;2024-03-02T04:46:16;3.58;;;0.60;;
70369;SDS011;57790;51.356;-2.906;2024-03-02T04:49:16;3.73;;;0.60;;
70369;SDS011;57790;51.356;-2.906;2024-03-02T04:52:17;4.15;;;0.90;;
70369;SDS011;57790;51.356;-2.906;2024-03-02T04:55:17;5.00;;;0.97;;
70369;SDS011;57790;51.356;-2.906;2024-03-02T04:58:49;3.40;;;0.80;;
70369;SDS011;57790;51.356;-2.906;2024-03-02T05:01:49;2.78;;;0.80;;
70369;SDS011;57790;51.356;-2.906;2024-03-02T05:04:50;3.83;;;0.90;;
70369;SDS011;57790;51.356;-2.906;2024-03-02T05:07:50;3.43;;;0.97;;
70369;SDS011;57790;51.356;-2.906;2024-03-02T05:10:50;3.90;;;1.00;;
70369;SDS011;57790;51.356;-2.906;2024-03-02T05:13:51;3.43;;;0.90;;
70369;SDS011;57790;51.356;-2.906;2024-03-02T05:16:51;3.33;;;0.90;;
70369;SDS011;57790;51.356;-2.906;2024-03-02T05:19:51;3.60;;;0.93;;
70369;SDS011;57790;51.356;-2.906;2024-03-02T05:22:52;2.90;;;0.90;;
70369;SDS011;57790;51.356;-2.906;2024-03-02T05:25:52;2.70;;;0.87;;
70369;SDS011;57790;51.356;-2.906;2024-03-02T05:28:52;3.15;;;0.90;;
70369;SDS011;57790;51.356;-2.906;2024-03-02T05:31:53;2.40;;;0.80;;
70369;SDS011;57790;51.356;-2.906;2024-03-02T05:34:53;4.47;;;1.00;;
70369;SDS011;57790;51.356;-2.906;2024-03-02T05:37:54;3.67;;;1.10;;
70369;SDS011;57790;51.356;-2.906;2024-03-02T05:40:55;3.40;;;0.90;;
70369;SDS011;57790;51.356;-2.906;2024-03-02T05:43:55;4.33;;;1.00;;
70369;SDS011;57790;51.356;-2.906;2024-03-02T05:46:56;3.73;;;1.20;;
70369;SDS011;57790;51.356;-2.906;2024-03-02T05:49:56;2.77;;;1.07;;
70369;SDS011;57790;51.356;-2.906;2024-03-02T05:52:56;2.77;;;0.93;;
70369;SDS011;57790;51.356;-2.906;2024-03-02T05:55:57;4.03;;;0.90;;
70369;SDS011;57790;51.356;-2.906;2024-03-02T05:58:57;3.07;;;0.90;;
70369;SDS011;57790;51.356;-2.906;2024-03-02T06:02:08;2.97;;;1.00;;
70369;SDS011;57790;51.356;-2.906;2024-03-02T06:05:09;2.83;;;1.00;;
70369;SDS011;57790;51.356;-2.906;2024-03-02T06:08:09;3.10;;;1.10;;
70369;SDS011;57790;51.356;-2.906;2024-03-02T06:11:09;3.00;;;1.00;;
70369;SDS011;57790;51.356;-2.906;2024-03-02T06:14:10;2.77;;;0.90;;
70369;SDS011;57790;51.356;-2.906;2024-03-02T06:17:10;2.97;;;1.10;;
70369;SDS011;57790;51.356;-2.906;2024-03-02T06:20:11;2.70;;;0.87;;
70369;SDS011;57790;51.356;-2.906;2024-03-02T06:23:11;3.20;;;0.97;;
70369;SDS011;57790;51.356;-2.906;2024-03-02T06:26:11;3.70;;;1.00;;
70369;SDS011;57790;51.356;-2.906;2024-03-02T06:29:12;3.10;;;0.80;;
70369;SDS011;57790;51.356;-2.906;2024-03-02T06:32:12;2.90;;;0.87;;
70369;SDS011;57790;51.356;-2.906;2024-03-02T06:35:13;2.90;;;1.00;;
70369;SDS011;57790;51.356;-2.906;2024-03-02T06:38:13;3.77;;;1.20;;
70369;SDS011;57790;51.356;-2.906;2024-03-02T06:41:14;3.50;;;1.20;;
70369;SDS011;57790;51.356;-2.906;2024-03-02T06:44:14;3.00;;;0.93;;
70369;SDS011;57790;51.356;-2.906;2024-03-02T06:47:14;2.60;;;0.80;;
70369;SDS011;57790;51.356;-2.906;2024-03-02T06:50:16;3.90;;;1.20;;
70369;SDS011;57790;51.356;-2.906;2024-03-02T06:53:17;3.03;;;0.97;;
70369;SDS011;57790;51.356;-2.906;2024-03-02T06:56:17;3.33;;;1.00;;
70369;SDS011;57790;51.356;-2.906;2024-03-02T06:59:18;2.07;;;0.67;;
70369;SDS011;57790;51.356;-2.906;2024-03-02T07:02:18;3.77;;;1.10;;
70369;SDS011;57790;51.356;-2.906;2024-03-02T07:05:19;2.47;;;0.80;;
70369;SDS011;57790;51.356;-2.906;2024-03-02T07:08:21;3.67;;;0.98;;
70369;SDS011;57790;51.356;-2.906;2024-03-02T07:11:21;3.10;;;0.93;;
70369;SDS011;57790;51.356;-2.906;2024-03-02T07:14:21;2.30;;;0.80;;
70369;SDS011;57790;51.356;-2.906;2024-03-02T07:17:37;2.83;;;0.80;;
70369;SDS011;57790;51.356;-2.906;2024-03-02T07:20:37;2.40;;;0.80;;
70369;SDS011;57790;51.356;-2.906;2024-03-02T07:23:39;2.78;;;0.65;;
70369;SDS011;57790;51.356;-2.906;2024-03-02T07:26:39;2.13;;;0.70;;
70369;SDS011;57790;51.356;-2.906;2024-03-02T07:29:39;2.40;;;0.77;;
70369;SDS011;57790;51.356;-2.906;2024-03-02T07:32:40;3.10;;;0.70;;
70369;SDS011;57790;51.356;-2.906;2024-03-02T07:35:42;2.00;;;0.60;;
70369;SDS011;57790;51.356;-2.906;2024-03-02T07:38:43;2.42;;;0.60;;
70369;SDS011;57790;51.356;-2.906;2024-03-02T07:41:45;1.90;;;0.50;;
70369;SDS011;57790;51.356;-2.906;2024-03-02T07:44:45;2.47;;;0.40;;
70369;SDS011;57790;51.356;-2.906;2024-03-02T07:47:46;3.13;;;0.50;;
70369;SDS011;57790;51.356;-2.906;2024-03-02T07:50:46;1.93;;;0.50;;
70369;SDS011;57790;51.356;-2.906;2024-03-02T07:53:47;1.40;;;0.40;;
70369;SDS011;57790;51.356;-2.906;2024-03-02T07:56:47;1.10;;;0.40;;
70369;SDS011;57790;51.356;-2.906;2024-03-02T07:59:48;1.02;;;0.40;;
70369;SDS011;57790;51.356;-2.906;2024-03-02T08:02:50;1.13;;;0.37;;
70369;SDS011;57790;51.356;-2.906;2024-03-02T08:05:53;1.15;;;0.30;;
70369;SDS011;57790;51.356;-2.906;2024-03-02T08:08:54;1.73;;;0.40;;
70369;SDS011;57790;51.356;-2.906;2024-03-02T08:11:54;1.67;;;0.40;;
70369;SDS011;57790;51.356;-2.906;2024-03-02T08:14:56;1.75;;;0.50;;
70369;SDS011;57790;51.356;-2.906;2024-03-02T08:17:57;2.57;;;0.40;;
70369;SDS011;57790;51.356;-2.906;2024-03-02T08:20:58;2.20;;;0.50;;
70369;SDS011;57790;51.356;-2.906;2024-03-02T08:23:58;1.13;;;0.40;;
70369;SDS011;57790;51.356;-2.906;2024-03-02T08:26:59;1.40;;;0.60;;
70369;SDS011;57790;51.356;-2.906;2024-03-02T08:30:00;2.92;;;0.40;;
70369;SDS011;57790;51.356;-2.906;2024-03-02T08:33:00;2.07;;;0.40;;
70369;SDS011;57790;51.356;-2.906;2024-03-02T08:36:00;1.37;;;0.40;;
70369;SDS011;57790;51.356;-2.906;2024-03-02T08:39:01;1.77;;;0.30;;
70369;SDS011;57790;51.356;-2.906;2024-03-02T08:42:03;1.63;;;0.30;;
70369;SDS011;57790;51.356;-2.906;2024-03-02T08:45:04;2.85;;;0.52;;
70369;SDS011;57790;51.356;-2.906;2024-03-02T08:48:06;1.83;;;0.40;;
70369;SDS011;57790;51.356;-2.906;2024-03-02T08:51:11;2.20;;;0.47;;
70369;SDS011;57790;51.356;-2.906;2024-03-02T08:54:11;2.03;;;0.60;;
70369;SDS011;57790;51.356;-2.906;2024-03-02T08:57:11;1.43;;;0.30;;
70369;SDS011;57790;51.356;-2.906;2024-03-02T09:00:12;2.87;;;0.40;;
70369;SDS011;57790;51.356;-2.906;2024-03-02T09:03:12;1.63;;;0.40;;
70369;SDS011;57790;51.356;-2.906;2024-03-02T09:06:13;1.83;;;0.40;;
70369;SDS011;57790;51.356;-2.906;2024-03-02T09:09:14;2.30;;;0.50;;
70369;SDS011;57790;51.356;-2.906;2024-03-02T09:12:14;1.77;;;0.40;;
70369;SDS011;57790;51.356;-2.906;2024-03-02T09:15:15;1.93;;;0.40;;
70369;SDS011;57790;51.356;-2.906;2024-03-02T09:18:15;2.33;;;0.40;;
70369;SDS011;57790;51.356;-2.906;2024-03-02T09:21:16;1.30;;;0.50;;
70369;SDS011;57790;51.356;-2.906;2024-03-02T09:24:16;1.63;;;0.40;;
70369;SDS011;57790;51.356;-2.906;2024-03-02T09:27:17;2.23;;;0.43;;
70369;SDS011;57790;51.356;-2.906;2024-03-02T09:30:17;2.60;;;0.60;;
70369;SDS011;57790;51.356;-2.906;2024-03-02T09:33:17;1.60;;;0.40;;
70369;SDS011;57790;51.356;-2.906;2024-03-02T09:36:18;3.27;;;0.50;;
70369;SDS011;57790;51.356;-2.906;2024-03-02T09:39:20;1.53;;;0.50;;
70369;SDS011;57790;51.356;-2.906;2024-03-02T09:42:20;2.20;;;0.50;;
70369;SDS011;57790;51.356;-2.906;2024-03-02T09:45:22;1.60;;;0.57;;
70369;SDS011;57790;51.356;-2.906;2024-03-02T09:48:24;1.92;;;0.50;;
70369;SDS011;57790;51.356;-2.906;2024-03-02T09:51:24;2.53;;;0.50;;
70369;SDS011;57790;51.356;-2.906;2024-03-02T09:54:25;2.42;;;0.50;;
70369;SDS011;57790;51.356;-2.906;2024-03-02T09:57:25;1.87;;;0.50;;
70369;SDS011;57790;51.356;-2.906;2024-03-02T10:00:26;4.63;;;0.63;;
70369;SDS011;57790;51.356;-2.906;2024-03-02T10:03:26;2.50;;;0.57;;
70369;SDS011;57790;51.356;-2.906;2024-03-02T10:06:29;1.17;;;0.43;;
70369;SDS011;57790;51.356;-2.906;2024-03-02T10:09:29;2.77;;;0.60;;
70369;SDS011;57790;51.356;-2.906;2024-03-02T10:12:30;1.77;;;0.50;;
70369;SDS011;57790;51.356;-2.906;2024-03-02T10:15:30;1.63;;;0.60;;
70369;SDS011;57790;51.356;-2.906;2024-03-02T10:18:31;2.20;;;0.55;;
70369;SDS011;57790;51.356;-2.906;2024-03-02T10:21:31;2.30;;;0.60;;
70369;SDS011;57790;51.356;-2.906;2024-03-02T10:24:41;1.73;;;0.60;;
70369;SDS011;57790;51.356;-2.906;2024-03-02T10:27:44;2.22;;;0.70;;
70369;SDS011;57790;51.356;-2.906;2024-03-02T10:30:47;1.50;;;0.40;;
70369;SDS011;57790;51.356;-2.906;2024-03-02T10:33:48;3.03;;;0.60;;
70369;SDS011;57790;51.356;-2.906;2024-03-02T10:36:49;2.50;;;0.50;;
70369;SDS011;57790;51.356;-2.906;2024-03-02T10:39:49;2.97;;;0.60;;
70369;SDS011;57790;51.356;-2.906;2024-03-02T10:42:52;3.03;;;0.55;;
70369;SDS011;57790;51.356;-2.906;2024-03-02T10:45:52;2.17;;;0.50;;
70369;SDS011;57790;51.356;-2.906;2024-03-02T10:48:54;2.08;;;0.50;;
70369;SDS011;57790;51.356;-2.906;2024-03-02T10:51:55;1.90;;;0.60;;
70369;SDS011;57790;51.356;-2.906;2024-03-02T10:54:55;3.77;;;0.60;;
70369;SDS011;57790;51.356;-2.906;2024-03-02T10:57:55;4.13;;;0.63;;
70369;SDS011;57790;51.356;-2.906;2024-03-02T11:01:01;2.13;;;0.60;;
70369;SDS011;57790;51.356;-2.906;2024-03-02T11:04:03;2.47;;;0.53;;
70369;SDS011;57790;51.356;-2.906;2024-03-02T11:07:08;2.17;;;0.52;;
70369;SDS011;57790;51.356;-2.906;2024-03-02T11:10:10;2.05;;;0.50;;
70369;SDS011;57790;51.356;-2.906;2024-03-02T11:13:12;2.92;;;0.60;;
70369;SDS011;57790;51.356;-2.906;2024-03-02T11:16:21;3.50;;;0.60;;
70369;SDS011;57790;51.356;-2.906;2024-03-02T11:19:24;2.17;;;0.50;;
70369;SDS011;57790;51.356;-2.906;2024-03-02T11:22:26;2.40;;;0.60;;
70369;SDS011;57790;51.356;-2.906;2024-03-02T11:25:27;2.85;;;0.80;;
70369;SDS011;57790;51.356;-2.906;2024-03-02T11:28:34;3.37;;;0.70;;
70369;SDS011;57790;51.356;-2.906;2024-03-02T11:31:56;2.97;;;0.50;;
70369;SDS011;57790;51.356;-2.906;2024-03-02T11:34:57;1.92;;;0.40;;
70369;SDS011;57790;51.356;-2.906;2024-03-02T11:37:57;4.00;;;0.63;;
70369;SDS011;57790;51.356;-2.906;2024-03-02T11:40:59;2.30;;;0.60;;
70369;SDS011;57790;51.356;-2.906;2024-03-02T11:44:00;2.72;;;0.55;;
70369;SDS011;57790;51.356;-2.906;2024-03-02T11:47:07;2.42;;;0.60;;
70369;SDS011;57790;51.356;-2.906;2024-03-02T11:50:10;3.00;;;0.60;;
70369;SDS011;57790;51.356;-2.906;2024-03-02T11:53:11;2.80;;;0.65;;
70369;SDS011;57790;51.356;-2.906;2024-03-02T11:56:13;3.10;;;0.80;;
70369;SDS011;57790;51.356;-2.906;2024-03-02T11:59:14;2.55;;;0.60;;
70369;SDS011;57790;51.356;-2.906;2024-03-02T12:02:16;2.97;;;0.70;;
70369;SDS011;57790;51.356;-2.906;2024-03-02T12:05:20;3.13;;;0.80;;
70369;SDS011;57790;51.356;-2.906;2024-03-02T12:08:21;3.05;;;0.90;;
70369;SDS011;57790;51.356;-2.906;2024-03-02T12:11:21;5.20;;;1.23;;
70369;SDS011;57790;51.356;-2.906;2024-03-02T12:14:22;3.83;;;1.07;;
70369;SDS011;57790;51.356;-2.906;2024-03-02T12:17:22;4.03;;;1.20;;
70369;SDS011;57790;51.356;-2.906;2024-03-02T12:20:23;5.83;;;1.70;;
70369;SDS011;57790;51.356;-2.906;2024-03-02T12:23:25;6.40;;;1.90;;
70369;SDS011;57790;51.356;-2.906;2024-03-02T12:26:25;6.53;;;1.87;;
70369;SDS011;57790;51.356;-2.906;2024-03-02T12:29:26;7.57;;;2.03;;
70369;SDS011;57790;51.356;-2.906;2024-03-02T12:32:26;6.83;;;2.10;;
70369;SDS011;57790;51.356;-2.906;2024-03-02T12:35:27;5.82;;;2.08;;
70369;SDS011;57790;51.356;-2.906;2024-03-02T12:38:27;7.27;;;2.40;;
70369;SDS011;57790;51.356;-2.906;2024-03-02T12:41:29;8.50;;;2.40;;
70369;SDS011;57790;51.356;-2.906;2024-03-02T12:44:29;7.50;;;2.23;;
70369;SDS011;57790;51.356;-2.906;2024-03-02T12:47:30;8.33;;;2.27;;
70369;SDS011;57790;51.356;-2.906;2024-03-02T12:50:30;9.53;;;2.40;;
70369;SDS011;57790;51.356;-2.906;2024-03-02T12:53:31;7.53;;;2.47;;
70369;SDS011;57790;51.356;-2.906;2024-03-02T12:56:31;7.63;;;2.50;;
70369;SDS011;57790;51.356;-2.906;2024-03-02T12:59:32;9.02;;;2.58;;
70369;SDS011;57790;51.356;-2.906;2024-03-02T13:02:33;7.57;;;2.00;;
70369;SDS011;57790;51.356;-2.906;2024-03-02T13:05:34;7.77;;;2.30;;
70369;SDS011;57790;51.356;-2.906;2024-03-02T13:08:35;8.25;;;2.50;;
70369;SDS011;57790;51.356;-2.906;2024-03-02T13:11:35;8.57;;;2.63;;
70369;SDS011;57790;51.356;-2.906;2024-03-02T13:14:37;7.32;;;2.25;;
70369;SDS011;57790;51.356;-2.906;2024-03-02T13:17:38;8.93;;;2.50;;
70369;SDS011;57790;51.356;-2.906;2024-03-02T13:20:39;6.95;;;2.35;;
70369;SDS011;57790;51.356;-2.906;2024-03-02T13:23:40;8.77;;;2.58;;
70369;SDS011;57790;51.356;-2.906;2024-03-02T13:26:40;7.40;;;2.17;;
70369;SDS011;57790;51.356;-2.906;2024-03-02T13:29:40;6.30;;;2.13;;
70369;SDS011;57790;51.356;-2.906;2024-03-02T13:32:41;8.32;;;2.10;;
70369;SDS011;57790;51.356;-2.906;2024-03-02T13:35:42;8.23;;;2.50;;
70369;SDS011;57790;51.356;-2.906;2024-03-02T13:38:42;6.70;;;1.93;;
70369;SDS011;57790;51.356;-2.906;2024-03-02T13:41:43;8.70;;;2.33;;
70369;SDS011;57790;51.356;-2.906;2024-03-02T13:44:51;7.28;;;2.10;;
70369;SDS011;57790;51.356;-2.906;2024-03-02T13:47:52;7.33;;;1.90;;
70369;SDS011;57790;51.356;-2.906;2024-03-02T13:50:53;5.38;;;1.65;;
70369;SDS011;57790;51.356;-2.906;2024-03-02T13:53:53;6.57;;;1.80;;
70369;SDS011;57790;51.356;-2.906;2024-03-02T13:56:54;8.13;;;2.20;;
70369;SDS011;57790;51.356;-2.906;2024-03-02T13:59:54;9.27;;;2.00;;
70369;SDS011;57790;51.356;-2.906;2024-03-02T14:02:55;6.43;;;1.80;;
70369;SDS011;57790;51.356;-2.906;2024-03-02T14:05:55;9.27;;;1.80;;
70369;SDS011;57790;51.356;-2.906;2024-03-02T14:08:56;8.40;;;1.90;;
70369;SDS011;57790;51.356;-2.906;2024-03-02T14:11:56;7.33;;;1.63;;
70369;SDS011;57790;51.356;-2.906;2024-03-02T14:14:57;8.93;;;1.70;;
70369;SDS011;57790;51.356;-2.906;2024-03-02T14:18:02;7.45;;;1.55;;
70369;SDS011;57790;51.356;-2.906;2024-03-02T14:21:03;7.70;;;2.00;;
70369;SDS011;57790;51.356;-2.906;2024-03-02T14:24:03;7.68;;;1.67;;
70369;SDS011;57790;51.356;-2.906;2024-03-02T14:27:04;7.17;;;1.90;;
70369;SDS011;57790;51.356;-2.906;2024-03-02T14:30:05;6.43;;;1.50;;
70369;SDS011;57790;51.356;-2.906;2024-03-02T14:33:06;9.80;;;2.00;;
70369;SDS011;57790;51.356;-2.906;2024-03-02T14:36:07;8.97;;;1.80;;
70369;SDS011;57790;51.356;-2.906;2024-03-02T14:39:07;6.88;;;1.67;;
70369;SDS011;57790;51.356;-2.906;2024-03-02T14:42:10;6.07;;;1.43;;
70369;SDS011;57790;51.356;-2.906;2024-03-02T14:45:10;6.43;;;1.50;;
70369;SDS011;57790;51.356;-2.906;2024-03-02T14:48:10;5.57;;;1.50;;
70369;SDS011;57790;51.356;-2.906;2024-03-02T14:51:11;6.50;;;1.63;;
70369;SDS011;57790;51.356;-2.906;2024-03-02T14:54:11;6.77;;;1.60;;
70369;SDS011;57790;51.356;-2.906;2024-03-02T14:57:12;7.60;;;1.50;;
70369;SDS011;57790;51.356;-2.906;2024-03-02T15:00:13;4.63;;;1.33;;
70369;SDS011;57790;51.356;-2.906;2024-03-02T15:03:13;5.93;;;1.58;;
70369;SDS011;57790;51.356;-2.906;2024-03-02T15:06:14;4.83;;;1.40;;
70369;SDS011;57790;51.356;-2.906;2024-03-02T15:09:14;5.40;;;1.43;;
70369;SDS011;57790;51.356;-2.906;2024-03-02T15:12:18;5.20;;;1.20;;
70369;SDS011;57790;51.356;-2.906;2024-03-02T15:15:18;4.97;;;1.20;;
70369;SDS011;57790;51.356;-2.906;2024-03-02T15:18:19;6.07;;;1.43;;
70369;SDS011;57790;51.356;-2.906;2024-03-02T15:21:19;5.00;;;1.20;;
70369;SDS011;57790;51.356;-2.906;2024-03-02T15:24:20;4.83;;;1.10;;
70369;SDS011;57790;51.356;-2.906;2024-03-02T15:27:20;5.37;;;1.17;;
70369;SDS011;57790;51.356;-2.906;2024-03-02T15:30:20;5.17;;;0.80;;
70369;SDS011;57790;51.356;-2.906;2024-03-02T15:33:21;3.70;;;1.00;;
70369;SDS011;57790;51.356;-2.906;2024-03-02T15:36:25;4.68;;;0.90;;
70369;SDS011;57790;51.356;-2.906;2024-03-02T15:39:25;4.87;;;1.00;;
70369;SDS011;57790;51.356;-2.906;2024-03-02T15:42:26;3.95;;;0.88;;
70369;SDS011;57790;51.356;-2.906;2024-03-02T15:45:26;4.27;;;1.00;;
70369;SDS011;57790;51.356;-2.906;2024-03-02T15:48:33;4.05;;;0.90;;
70369;SDS011;57790;51.356;-2.906;2024-03-02T15:51:33;4.30;;;0.90;;
70369;SDS011;57790;51.356;-2.906;2024-03-02T15:54:36;3.23;;;0.80;;
70369;SDS011;57790;51.356;-2.906;2024-03-02T15:57:37;2.93;;;0.77;;
70369;SDS011;57790;51.356;-2.906;2024-03-02T16:00:37;4.53;;;0.80;;
70369;SDS011;57790;51.356;-2.906;2024-03-02T16:03:38;4.90;;;1.10;;
70369;SDS011;57790;51.356;-2.906;2024-03-02T16:06:38;3.13;;;0.70;;
70369;SDS011;57790;51.356;-2.906;2024-03-02T16:09:38;3.90;;;1.10;;
70369;SDS011;57790;51.356;-2.906;2024-03-02T16:12:39;5.70;;;0.90;;
70369;SDS011;57790;51.356;-2.906;2024-03-02T16:15:39;4.28;;;0.70;;
70369;SDS011;57790;51.356;-2.906;2024-03-02T16:18:40;4.97;;;0.73;;
70369;SDS011;57790;51.356;-2.906;2024-03-02T16:21:40;4.73;;;0.83;;
70369;SDS011;57790;51.356;-2.906;2024-03-02T16:24:40;3.43;;;0.70;;
70369;SDS011;57790;51.356;-2.906;2024-03-02T16:27:41;4.60;;;0.90;;
70369;SDS011;57790;51.356;-2.906;2024-03-02T16:30:42;4.18;;;1.00;;
70369;SDS011;57790;51.356;-2.906;2024-03-02T16:33:42;5.33;;;0.80;;
70369;SDS011;57790;51.356;-2.906;2024-03-02T16:36:43;5.22;;;0.70;;
70369;SDS011;57790;51.356;-2.906;2024-03-02T16:39:43;3.17;;;0.80;;
70369;SDS011;57790;51.356;-2.906;2024-03-02T16:42:44;3.73;;;0.83;;
70369;SDS011;57790;51.356;-2.906;2024-03-02T16:45:44;5.70;;;1.10;;
70369;SDS011;57790;51.356;-2.906;2024-03-02T16:48:45;3.22;;;0.75;;
70369;SDS011;57790;51.356;-2.906;2024-03-02T16:51:46;5.27;;;1.10;;
70369;SDS011;57790;51.356;-2.906;2024-03-02T16:54:49;4.13;;;0.93;;
70369;SDS011;57790;51.356;-2.906;2024-03-02T16:57:50;3.85;;;0.85;;
70369;SDS011;57790;51.356;-2.906;2024-03-02T17:00:51;4.25;;;0.80;;
70369;SDS011;57790;51.356;-2.906;2024-03-02T17:03:53;3.27;;;0.93;;
70369;SDS011;57790;51.356;-2.906;2024-03-02T17:06:53;3.42;;;0.90;;
70369;SDS011;57790;51.356;-2.906;2024-03-02T17:09:54;3.87;;;1.17;;
70369;SDS011;57790;51.356;-2.906;2024-03-02T17:12:56;4.97;;;0.90;;
70369;SDS011;57790;51.356;-2.906;2024-03-02T17:15:59;3.58;;;1.00;;
70369;SDS011;57790;51.356;-2.906;2024-03-02T17:19:00;3.63;;;1.00;;
70369;SDS011;57790;51.356;-2.906;2024-03-02T17:22:00;3.50;;;0.90;;
70369;SDS011;57790;51.356;-2.906;2024-03-02T17:25:01;2.22;;;0.70;;
70369;SDS011;57790;51.356;-2.906;2024-03-02T17:28:17;2.67;;;0.70;;
70369;SDS011;57790;51.356;-2.906;2024-03-02T17:31:22;3.03;;;0.85;;
70369;SDS011;57790;51.356;-2.906;2024-03-02T17:34:22;3.73;;;0.70;;
70369;SDS011;57790;51.356;-2.906;2024-03-02T17:37:25;3.17;;;0.82;;
70369;SDS011;57790;51.356;-2.906;2024-03-02T17:40:26;2.00;;;0.70;;
70369;SDS011;57790;51.356;-2.906;2024-03-02T17:43:26;3.13;;;0.70;;
70369;SDS011;57790;51.356;-2.906;2024-03-02T17:46:27;2.47;;;0.70;;
70369;SDS011;57790;51.356;-2.906;2024-03-02T17:49:27;3.88;;;1.00;;
70369;SDS011;57790;51.356;-2.906;2024-03-02T17:52:27;3.10;;;0.67;;
70369;SDS011;57790;51.356;-2.906;2024-03-02T17:55:28;3.63;;;0.67;;